グアルーリョス国際空港 (サンパウロ)の過去48時間の天気

グアルーリョス国際空港 (サンパウロ) (Guarulhos Civ / Mil )

現在時刻: 12/12 07:18 -02 (12/12 09:18 UTC) 以下の時間は現地時間です。

過去48時間のMETAR気象情報
時間 風向 風速(m/s) 視程 気温(℃) 湿度(%) 気圧(hPa) 天気現象
12 07:00 東北東 3 10km以上 20 83 1020
12 06:00 東北東 3 10km以上 19 88 1020
12 05:00 東北東 3 10km以上 19 83 1019
12 04:00 東北東 4 10km以上 19 83 1019
12 03:00 東北東 3 10km以上 20 78 1019
12 02:00 東北東 3 10km以上 20 78 1020
12 01:00 東北東 4 10km以上 21 78 1021
12 00:00 2 10km以上 22 73 1022
11 23:00 2 10km以上 23 65 1022
11 22:00 3 10km以上 25 57 1022
11 21:00 東南東 2 10km以上 25 61 1021
11 20:00 南東 3 10km以上 26 61 1020
11 19:00 北北西 3 10km以上 29 45 1019
11 18:00 北北東 4 10km以上 30 43 1019
11 17:00 北西 2 10km以上 31 43 1019
11 16:00 4 10km以上 30 43 1020
11 15:00 南南西 1 10km以上 29 52 1021
11 14:00 北北西 4 10km以上 29 48 1022
11 13:00 西北西 2 10km以上 28 51 1023
11 12:00 西 3 10km以上 28 51 1023
11 11:00 1 10km以上 28 55 1024
11 10:00 北北東 2 10km以上 26 61 1024
11 09:00 東北東 3 10km以上 24 65 1023
11 08:00 北東 4 10km以上 21 78 1023
11 07:00 東北東 2 10km以上 18 88 1022
11 06:00 3 10km以上 19 78 1022
11 05:00 東北東 3 10km以上 17 88 1021
11 04:00 北東 3 10km以上 18 83 1021
11 03:00 2 10km以上 18 83 1021
11 02:00 1 10km以上 20 73 1022
11 01:00 東北東 2 10km以上 20 73 1022
11 00:00 東北東 4 10km以上 20 73 1023
10 23:00 2 10km以上 22 73 1023
10 22:00 静穏 0 10km以上 21 73 1023
10 21:00 1 10km以上 24 57 1022
10 20:00 東南東 4 10km以上 25 50 1021
10 19:00 南東 3 10km以上 27 48 1021
10 18:00 東南東 6 10km以上 28 48 1020
10 17:00 静穏 0 10km以上 30 38 1020
10 16:00 南南東 2 10km以上 30 40 1020
10 15:00 西 3 10km以上 30 38 1021
10 14:00 西南西 3 10km以上 28 42 1022
10 13:00 北西 4 10km以上 28 48 1023
10 12:00 2 10km以上 26 58 1023
10 11:00 東北東 2 10km以上 24 65 1024
10 10:00 東北東 3 10km以上 22 69 1025
10 09:00 東北東 3 10km以上 19 83 1025
10 08:25 東北東 4 10km以上 18 88 1025
10 08:00 北東 4 7000m 15 100 1024
SBGR 120900Z 07005KT CAVOK 20/17 Q1020
SBGR 120800Z 06005KT CAVOK 19/17 Q1020
SBGR 120700Z 07005KT CAVOK 19/16 Q1019
SBGR 120600Z 06007KT CAVOK 19/16 Q1019
SBGR 120500Z 06005KT CAVOK 20/16 Q1019
SBGR 120400Z 06006KT CAVOK 20/16 Q1020
SBGR 120300Z 07007KT CAVOK 21/17 Q1021
SBGR 120200Z 08003KT CAVOK 22/17 Q1022
SBGR 120100Z 10004KT CAVOK 23/16 Q1022
SBGR 120000Z 10005KT CAVOK 25/16 Q1022
SBGR 112300Z 12003KT CAVOK 25/17 Q1021
SBGR 112200Z 14005KT CAVOK 26/18 Q1020
SBGR 112100Z 33005KT CAVOK 29/16 Q1019
SBGR 112000Z 02007KT CAVOK 30/16 Q1019
SBGR 111900Z 31004KT CAVOK 31/17 Q1019
SBGR 111800Z 36007KT CAVOK 30/16 Q1020
SBGR 111700Z 21002KT 9999 BKN048 29/18 Q1021
SBGR 111600Z 33007KT 9999 BKN048 29/17 Q1022
SBGR 111500Z 29004KT 9999 SCT048 28/17 Q1023
SBGR 111400Z 27005KT 9999 SCT048 28/17 Q1023
SBGR 111300Z 01002KT CAVOK 28/18 Q1024
SBGR 111200Z 02003KT CAVOK 26/18 Q1024
SBGR 111100Z 07006KT CAVOK 24/17 Q1023
SBGR 111000Z 05008KT CAVOK 21/17 Q1023
SBGR 110900Z 06004KT CAVOK 18/16 Q1022
SBGR 110800Z 08005KT CAVOK 19/15 Q1022
SBGR 110700Z 07006KT CAVOK 17/15 Q1021
SBGR 110600Z 05005KT CAVOK 18/15 Q1021
SBGR 110500Z 08003KT CAVOK 18/15 Q1021
SBGR 110400Z 08002KT CAVOK 20/15 Q1022
SBGR 110300Z 07003KT CAVOK 20/15 Q1022
SBGR 110200Z 07007KT CAVOK 20/15 Q1023
SBGR 110100Z 08003KT CAVOK 22/17 Q1023
SBGR 110000Z 00000KT CAVOK 21/16 Q1023
SBGR 102300Z 09002KT CAVOK 24/15 Q1022
SBGR 102200Z 12007KT CAVOK 25/14 Q1021
SBGR 102100Z 14006KT CAVOK 27/15 Q1021
SBGR 102000Z 12011KT CAVOK 28/16 Q1020
SBGR 101900Z 00000KT CAVOK 30/14 Q1020
SBGR 101800Z 16004G17KT CAVOK 30/15 Q1020
SBGR 101700Z 28005KT CAVOK 30/14 Q1021
SBGR 101600Z 24006KT 9999 BKN045 28/14 Q1022
SBGR 101500Z 31007KT 9999 BKN045 28/16 Q1023
SBGR 101400Z 01003KT 9999 SCT040 26/17 Q1023
SBGR 101300Z 07004KT CAVOK 24/17 Q1024
SBGR 101200Z 06006KT CAVOK 22/16 Q1025
SBGR 101100Z 06006KT CAVOK 19/16 Q1025
SBGR 101025Z 06007KT 9999 SCT005 18/16 Q1025
SBGR 101000Z 04008KT 7000 BKN004 15/15 Q1024